createdAt,value
2017-08-18T00:00:39.212Z,1.57
2017-08-18T00:03:07.506Z,1.57
2017-08-18T00:05:35.802Z,1.77
2017-08-18T00:08:04.089Z,1.50
2017-08-18T00:10:31.600Z,1.30
2017-08-18T00:12:59.892Z,1.83
2017-08-18T00:15:28.174Z,1.43
2017-08-18T00:17:56.479Z,1.53
2017-08-18T00:20:24.004Z,1.93
2017-08-18T00:22:51.509Z,2.13
2017-08-18T00:25:19.127Z,1.80
2017-08-18T00:27:47.516Z,1.97
2017-08-18T00:30:15.184Z,1.57
2017-08-18T00:32:42.808Z,1.87
2017-08-18T00:35:10.306Z,1.77
2017-08-18T00:37:38.113Z,1.47
2017-08-18T00:40:05.625Z,1.60
2017-08-18T00:42:33.154Z,1.63
2017-08-18T00:45:00.712Z,1.60
2017-08-18T00:47:28.239Z,1.60
2017-08-18T00:49:55.746Z,1.60
2017-08-18T00:52:24.021Z,1.57
2017-08-18T00:54:52.306Z,1.90
2017-08-18T00:57:20.560Z,1.73
2017-08-18T00:59:48.106Z,1.60
2017-08-18T01:02:15.612Z,1.73
2017-08-18T01:04:43.155Z,1.60
2017-08-18T01:07:10.677Z,1.57
2017-08-18T01:09:38.166Z,1.57
2017-08-18T01:12:05.682Z,1.50
2017-08-18T01:14:33.185Z,1.30
2017-08-18T01:17:00.710Z,1.70
2017-08-18T01:19:28.202Z,1.47
2017-08-18T01:21:55.733Z,1.70
2017-08-18T01:24:23.224Z,1.40
2017-08-18T01:26:51.654Z,1.60
2017-08-18T01:29:19.180Z,1.53
2017-08-18T01:31:47.531Z,1.40
2017-08-18T01:34:15.066Z,1.60
2017-08-18T01:36:42.566Z,1.40
2017-08-18T01:39:10.835Z,1.20
2017-08-18T01:41:38.346Z,1.50
2017-08-18T01:44:05.994Z,1.77
2017-08-18T01:46:33.627Z,1.60
2017-08-18T01:49:01.186Z,1.40
2017-08-18T01:51:29.498Z,1.70
2017-08-18T01:53:57.082Z,1.50
2017-08-18T01:56:24.609Z,1.67
2017-08-18T01:58:52.114Z,1.50
2017-08-18T02:01:19.637Z,1.60
2017-08-18T02:03:47.157Z,1.67
2017-08-18T02:06:14.645Z,1.20
2017-08-18T02:08:42.193Z,1.67
2017-08-18T02:11:10.461Z,1.57
2017-08-18T02:13:38.856Z,1.50
2017-08-18T02:16:06.372Z,1.30
2017-08-18T02:18:34.108Z,1.60
2017-08-18T02:21:01.668Z,1.67
2017-08-18T02:23:29.258Z,1.50
2017-08-18T02:25:56.881Z,1.50
2017-08-18T02:28:24.385Z,1.77
2017-08-18T02:30:51.887Z,1.40
2017-08-18T02:33:19.411Z,1.43
2017-08-18T02:35:46.915Z,1.50
2017-08-18T02:38:14.433Z,1.77
2017-08-18T02:40:41.933Z,1.47
2017-08-18T02:43:09.446Z,1.60
2017-08-18T02:45:36.958Z,1.40
2017-08-18T02:48:04.479Z,1.50
2017-08-18T02:50:32.908Z,1.40
2017-08-18T02:53:00.434Z,1.23
2017-08-18T02:55:27.945Z,1.30
2017-08-18T02:57:55.468Z,1.80
2017-08-18T03:00:23.134Z,1.70
2017-08-18T03:02:50.645Z,1.60
2017-08-18T03:05:18.203Z,1.33
2017-08-18T03:07:45.726Z,1.60
2017-08-18T03:10:13.259Z,1.40
2017-08-18T03:12:41.527Z,1.40
2017-08-18T03:15:09.813Z,1.30
2017-08-18T03:17:37.317Z,1.70
2017-08-18T03:20:04.833Z,1.40
2017-08-18T03:22:33.109Z,1.27
2017-08-18T03:25:00.634Z,1.60
2017-08-18T03:27:28.154Z,1.70
2017-08-18T03:29:55.759Z,1.47
2017-08-18T03:32:23.272Z,1.30
2017-08-18T03:34:50.805Z,1.70
2017-08-18T03:37:19.084Z,1.40
2017-08-18T03:39:46.609Z,1.47
2017-08-18T03:42:14.101Z,1.47
2017-08-18T03:44:41.682Z,1.10
2017-08-18T03:47:09.174Z,1.50
2017-08-18T03:49:36.693Z,1.47
2017-08-18T03:52:04.190Z,1.60
2017-08-18T03:54:31.695Z,1.90
2017-08-18T03:56:59.982Z,1.30
2017-08-18T03:59:28.250Z,1.50
2017-08-18T04:01:56.544Z,1.43
2017-08-18T04:04:24.041Z,1.23
2017-08-18T04:06:51.562Z,1.23
2017-08-18T04:09:19.179Z,1.63
2017-08-18T04:11:46.677Z,1.67
2017-08-18T04:14:14.201Z,1.47
2017-08-18T04:16:41.702Z,1.70
2017-08-18T04:19:09.209Z,1.20
2017-08-18T04:21:36.732Z,1.30
2017-08-18T04:24:04.256Z,1.43
2017-08-18T04:26:32.634Z,1.40
2017-08-18T04:29:00.926Z,1.27
2017-08-18T04:31:28.436Z,1.40
2017-08-18T04:33:55.937Z,1.70
2017-08-18T04:36:24.225Z,1.20
2017-08-18T04:38:51.721Z,1.30
2017-08-18T04:41:19.241Z,1.43
2017-08-18T04:43:46.750Z,1.30
2017-08-18T04:46:14.281Z,1.70
2017-08-18T04:48:41.801Z,1.37
2017-08-18T04:51:09.322Z,1.37
2017-08-18T04:53:36.853Z,1.47
2017-08-18T04:56:04.364Z,1.53
2017-08-18T04:58:31.886Z,1.20
2017-08-18T05:00:59.492Z,1.43
2017-08-18T05:03:26.994Z,1.33
2017-08-18T05:05:54.534Z,1.30
2017-08-18T05:08:22.049Z,1.40
2017-08-18T05:10:49.557Z,1.40
2017-08-18T05:13:17.189Z,1.50
2017-08-18T05:15:44.758Z,1.40
2017-08-18T05:18:13.133Z,2.40
2017-08-18T05:20:40.701Z,1.10
2017-08-18T05:23:08.191Z,1.23
2017-08-18T05:25:35.717Z,1.13
2017-08-18T05:28:03.235Z,1.20
2017-08-18T05:30:30.765Z,1.20
2017-08-18T05:32:58.266Z,1.43
2017-08-18T05:35:25.763Z,1.50
2017-08-18T05:37:54.042Z,1.30
2017-08-18T05:40:22.342Z,1.17
2017-08-18T05:42:49.871Z,1.00
2017-08-18T05:45:18.137Z,1.40
2017-08-18T05:47:46.460Z,1.30
2017-08-18T05:50:13.986Z,1.20
2017-08-18T05:52:41.490Z,1.40
2017-08-18T05:55:09.002Z,1.30
2017-08-18T05:57:37.281Z,1.20
2017-08-18T06:00:05.566Z,1.43
2017-08-18T06:02:33.825Z,1.53
2017-08-18T06:05:01.362Z,1.80
2017-08-18T06:07:28.894Z,1.43
2017-08-18T06:09:56.423Z,1.70
2017-08-18T06:12:24.716Z,1.80
2017-08-18T06:14:52.964Z,1.87
2017-08-18T06:17:21.293Z,2.23
2017-08-18T06:19:49.154Z,1.70
2017-08-18T06:22:16.853Z,1.83
2017-08-18T06:24:44.353Z,2.33
2017-08-18T06:27:12.639Z,2.03
2017-08-18T06:29:40.154Z,2.10
2017-08-18T06:32:07.644Z,2.10
2017-08-18T06:34:35.198Z,2.10
2017-08-18T06:37:03.473Z,2.37
2017-08-18T06:39:30.970Z,2.30
2017-08-18T06:41:58.485Z,2.30
2017-08-18T06:44:26.090Z,2.60
2017-08-18T06:46:53.657Z,2.53
2017-08-18T06:49:21.165Z,2.07
2017-08-18T06:51:49.458Z,2.03
2017-08-18T06:54:17.736Z,2.33
2017-08-18T06:56:46.021Z,2.50
2017-08-18T06:59:13.604Z,2.20
2017-08-18T07:01:41.103Z,2.23
2017-08-18T07:04:08.623Z,2.10
2017-08-18T07:06:36.695Z,2.17
2017-08-18T07:09:04.293Z,2.50
2017-08-18T07:11:32.091Z,2.20
2017-08-18T07:14:00.373Z,2.30
2017-08-18T07:16:27.889Z,1.93
2017-08-18T07:18:55.403Z,2.37
2017-08-18T07:21:22.909Z,2.07
2017-08-18T07:23:50.424Z,1.97
2017-08-18T07:26:17.963Z,2.33
2017-08-18T07:28:46.240Z,2.10
2017-08-18T07:31:14.552Z,2.67
2017-08-18T07:33:42.106Z,2.13
2017-08-18T07:36:09.673Z,2.00
2017-08-18T07:38:37.234Z,1.70
2017-08-18T07:41:04.771Z,2.33
2017-08-18T07:43:33.034Z,2.03
2017-08-18T07:46:01.321Z,1.93
2017-08-18T07:48:28.937Z,2.13
2017-08-18T07:50:56.656Z,2.10
2017-08-18T07:53:24.199Z,2.17
2017-08-18T07:55:52.473Z,2.23
2017-08-18T07:58:20.761Z,1.87
2017-08-18T08:00:48.329Z,1.90
2017-08-18T08:03:15.854Z,2.13
2017-08-18T08:05:43.373Z,2.20
2017-08-18T08:08:10.972Z,1.70
2017-08-18T08:10:38.490Z,2.00
2017-08-18T08:13:06.030Z,1.77
2017-08-18T08:15:33.548Z,2.53
2017-08-18T08:18:01.079Z,2.37
2017-08-18T08:20:28.593Z,2.03
2017-08-18T08:22:56.901Z,1.80
2017-08-18T08:25:24.560Z,2.00
2017-08-18T08:27:52.074Z,2.70
2017-08-18T08:30:19.619Z,2.43
2017-08-18T08:32:47.133Z,2.10
2017-08-18T08:35:14.710Z,2.10
2017-08-18T08:37:42.205Z,1.80
2017-08-18T08:40:09.753Z,2.00
2017-08-18T08:42:37.246Z,1.80
2017-08-18T08:45:04.789Z,1.93
2017-08-18T08:47:32.294Z,2.33
2017-08-18T08:49:59.808Z,1.83
2017-08-18T08:52:27.340Z,1.63
2017-08-18T08:54:54.851Z,2.10
2017-08-18T08:57:24.659Z,2.17
2017-08-18T08:59:52.941Z,2.20
2017-08-18T09:02:21.329Z,2.00
2017-08-18T09:04:48.861Z,2.40
2017-08-18T09:07:16.373Z,1.90
2017-08-18T09:09:43.940Z,1.73
2017-08-18T09:12:11.440Z,1.90
2017-08-18T09:14:38.966Z,1.57
2017-08-18T09:17:06.607Z,2.10
2017-08-18T09:19:34.139Z,1.47
2017-08-18T09:22:02.453Z,1.87
2017-08-18T09:24:29.989Z,1.70
2017-08-18T09:26:57.519Z,1.67
2017-08-18T09:29:25.048Z,2.07
2017-08-18T09:31:52.545Z,1.90
2017-08-18T09:34:20.063Z,2.10
2017-08-18T09:36:47.588Z,1.60
2017-08-18T09:39:15.249Z,1.50
2017-08-18T09:41:42.789Z,1.70
2017-08-18T09:44:11.333Z,1.60
2017-08-18T09:46:38.921Z,1.60
2017-08-18T09:52:21.850Z,1.80
2017-08-18T09:55:01.437Z,1.60
2017-08-18T10:00:30.948Z,1.47
2017-08-18T10:02:58.504Z,1.70
2017-08-18T10:05:26.958Z,1.73
2017-08-18T10:07:54.468Z,1.93
2017-08-18T10:10:21.987Z,1.80
2017-08-18T10:12:49.514Z,1.60
2017-08-18T10:15:17.273Z,1.50
2017-08-18T10:17:45.999Z,1.50
2017-08-18T10:20:13.712Z,1.70
2017-08-18T10:22:41.220Z,1.63
2017-08-18T10:25:08.735Z,1.67
2017-08-18T10:27:36.248Z,1.37
2017-08-18T10:30:03.712Z,1.60
2017-08-18T10:32:32.009Z,1.67
2017-08-18T10:34:59.640Z,1.60
2017-08-18T10:37:27.159Z,1.47
2017-08-18T10:39:54.655Z,1.50
2017-08-18T10:42:22.241Z,1.43
2017-08-18T10:44:49.743Z,1.57
2017-08-18T10:47:17.234Z,1.23
2017-08-18T10:49:45.595Z,1.40
2017-08-18T10:52:13.102Z,1.60
2017-08-18T10:54:41.373Z,1.30
2017-08-18T10:57:09.654Z,1.50
2017-08-18T10:59:37.918Z,1.30
2017-08-18T11:02:06.462Z,1.37
2017-08-18T11:04:33.994Z,1.53
2017-08-18T11:07:01.531Z,1.47
2017-08-18T11:09:29.831Z,1.20
2017-08-18T11:11:57.349Z,1.20
2017-08-18T11:14:24.878Z,1.60
2017-08-18T11:16:52.399Z,1.30
2017-08-18T11:19:19.918Z,1.10
2017-08-18T11:21:48.098Z,1.40
2017-08-18T11:24:16.083Z,1.33
2017-08-18T11:26:44.381Z,1.37
2017-08-18T11:29:11.880Z,1.30
2017-08-18T11:31:39.375Z,1.30
2017-08-18T11:34:06.899Z,1.33
2017-08-18T11:36:34.445Z,1.20
2017-08-18T11:39:01.968Z,1.40
2017-08-18T11:41:30.254Z,1.23
2017-08-18T11:43:57.773Z,1.30
2017-08-18T11:46:25.414Z,1.17
2017-08-18T11:48:52.874Z,1.10
2017-08-18T11:51:20.396Z,1.40
2017-08-18T11:53:47.925Z,1.10
2017-08-18T11:56:15.430Z,1.13
2017-08-18T11:58:42.991Z,1.00
2017-08-18T12:01:11.210Z,1.37
2017-08-18T12:03:38.729Z,1.30
2017-08-18T12:06:06.257Z,1.53
2017-08-18T12:08:34.528Z,1.20
2017-08-18T12:11:02.036Z,1.13
2017-08-18T12:13:29.536Z,1.00
2017-08-18T12:15:57.057Z,1.30
2017-08-18T12:18:24.642Z,1.83
2017-08-18T12:20:52.212Z,1.60
2017-08-18T12:23:19.759Z,1.80
2017-08-18T12:25:47.262Z,1.33
2017-08-18T12:28:14.826Z,1.43
2017-08-18T12:30:43.096Z,1.50
2017-08-18T12:33:11.383Z,1.30
2017-08-18T12:35:39.658Z,1.40
2017-08-18T12:38:07.152Z,1.40
2017-08-18T12:40:34.675Z,1.77
2017-08-18T12:43:02.377Z,1.60
2017-08-18T12:45:29.910Z,1.47
2017-08-18T12:47:57.446Z,1.57
2017-08-18T12:50:25.705Z,1.50
2017-08-18T12:52:53.268Z,2.00
2017-08-18T12:55:20.786Z,1.87
2017-08-18T12:57:48.329Z,1.83
2017-08-18T13:00:15.852Z,1.93
2017-08-18T13:02:43.362Z,1.83
2017-08-18T13:05:10.928Z,1.97
2017-08-18T13:07:38.568Z,2.20
2017-08-18T13:10:06.113Z,2.10
2017-08-18T13:12:34.409Z,2.57
2017-08-18T13:15:02.021Z,2.00
2017-08-18T13:17:29.601Z,2.70
2017-08-18T13:19:57.922Z,2.30
2017-08-18T13:22:25.435Z,2.63
2017-08-18T13:24:53.012Z,2.37
2017-08-18T13:27:21.282Z,2.23
2017-08-18T13:29:49.610Z,2.60
2017-08-18T13:32:17.143Z,2.00
2017-08-18T13:34:44.661Z,2.47
2017-08-18T13:37:12.171Z,2.73
2017-08-18T13:39:39.678Z,2.23
2017-08-18T13:42:07.178Z,2.00
2017-08-18T13:44:34.692Z,2.20
2017-08-18T13:47:02.255Z,2.10
2017-08-18T13:49:29.793Z,2.13
2017-08-18T13:51:57.302Z,1.90
2017-08-18T13:54:24.826Z,2.17
2017-08-18T13:56:52.373Z,2.03
2017-08-18T13:59:19.901Z,1.93
2017-08-18T14:01:47.421Z,1.90
2017-08-18T14:04:14.932Z,2.30
2017-08-18T14:06:42.472Z,1.50
2017-08-18T14:09:09.999Z,1.63
2017-08-18T14:11:37.575Z,1.60
2017-08-18T14:14:05.898Z,2.03
2017-08-18T14:16:34.013Z,1.80
2017-08-18T14:19:01.553Z,1.60
2017-08-18T14:21:29.344Z,1.60
2017-08-18T14:23:56.892Z,2.03
2017-08-18T14:26:30.298Z,1.60
2017-08-18T14:28:57.839Z,1.40
2017-08-18T14:31:25.351Z,1.90
2017-08-18T14:33:53.094Z,1.83
2017-08-18T14:36:21.430Z,1.40
2017-08-18T14:38:48.967Z,1.90
2017-08-18T14:41:16.427Z,1.57
2017-08-18T14:43:43.995Z,1.90
2017-08-18T14:46:11.605Z,1.90
2017-08-18T14:48:39.893Z,1.50
2017-08-18T14:51:08.127Z,1.57
2017-08-18T14:53:35.682Z,1.70
2017-08-18T14:56:03.607Z,1.10
2017-08-18T14:58:31.203Z,1.50
2017-08-18T15:00:58.707Z,1.50
2017-08-18T15:03:26.983Z,1.60
2017-08-18T15:05:55.306Z,1.63
2017-08-18T15:08:22.835Z,1.87
2017-08-18T15:10:51.164Z,1.20
2017-08-18T15:13:18.683Z,1.30
2017-08-18T15:15:46.218Z,1.73
2017-08-18T15:18:13.759Z,1.73
2017-08-18T15:20:41.283Z,1.57
2017-08-18T15:23:08.799Z,1.60
2017-08-18T15:25:37.105Z,1.50
2017-08-18T15:28:04.655Z,2.00
2017-08-18T15:30:33.420Z,1.40
2017-08-18T15:33:00.950Z,1.37
2017-08-18T15:35:28.526Z,1.30
2017-08-18T15:37:56.904Z,1.53
2017-08-18T15:40:24.437Z,1.60
2017-08-18T15:42:51.966Z,1.47
2017-08-18T15:45:19.502Z,1.40
2017-08-18T15:47:47.805Z,1.50
2017-08-18T15:50:15.306Z,1.60
2017-08-18T15:52:43.019Z,1.30
2017-08-18T15:55:11.324Z,1.30
2017-08-18T15:57:38.837Z,1.97
2017-08-18T16:00:07.138Z,1.70
2017-08-18T16:02:35.574Z,1.40
2017-08-18T16:05:03.303Z,1.50
2017-08-18T16:07:30.834Z,2.03
2017-08-18T16:09:59.150Z,2.40
2017-08-18T16:12:26.648Z,2.40
2017-08-18T16:14:54.229Z,4.10
2017-08-18T16:17:22.504Z,2.57
2017-08-18T16:19:50.786Z,2.77
2017-08-18T16:22:19.094Z,2.43
2017-08-18T16:24:46.654Z,2.30
2017-08-18T16:27:14.176Z,2.33
2017-08-18T16:29:41.674Z,2.60
2017-08-18T16:32:09.250Z,2.30
2017-08-18T16:34:36.762Z,2.57
2017-08-18T16:37:05.062Z,2.00
2017-08-18T16:39:32.595Z,2.17
2017-08-18T16:42:00.894Z,2.20
2017-08-18T16:44:28.459Z,2.60
2017-08-18T16:46:56.007Z,2.10
2017-08-18T16:49:24.312Z,2.40
2017-08-18T16:51:51.841Z,2.10
2017-08-18T16:54:20.149Z,1.83
2017-08-18T16:56:47.684Z,2.13
2017-08-18T16:59:15.196Z,2.27
2017-08-18T17:01:42.851Z,1.93
2017-08-18T17:04:10.383Z,2.10
2017-08-18T17:06:37.889Z,2.10
2017-08-18T17:09:05.492Z,1.80
2017-08-18T17:11:33.037Z,2.17
2017-08-18T17:14:00.571Z,2.40
2017-08-18T17:16:28.128Z,2.00
2017-08-18T17:18:55.634Z,2.07
2017-08-18T17:21:23.212Z,2.00
2017-08-18T17:23:50.846Z,2.00
2017-08-18T17:26:19.127Z,2.10
2017-08-18T17:28:46.708Z,1.97
2017-08-18T17:31:14.206Z,2.23
2017-08-18T17:33:41.738Z,2.17
2017-08-18T17:36:09.335Z,2.20
2017-08-18T17:38:36.851Z,2.80
2017-08-18T17:41:04.346Z,2.00
2017-08-18T17:43:31.898Z,2.17
2017-08-18T17:45:59.520Z,2.10
2017-08-18T17:48:27.062Z,1.93
2017-08-18T17:50:55.412Z,1.90
2017-08-18T17:53:23.020Z,1.90
2017-08-18T17:55:50.537Z,1.90
2017-08-18T17:58:18.149Z,2.47
2017-08-18T18:00:45.697Z,2.60
2017-08-18T18:03:13.257Z,2.47
2017-08-18T18:05:40.763Z,2.57
2017-08-18T18:08:08.248Z,2.30
2017-08-18T18:10:37.086Z,2.30
2017-08-18T18:13:04.717Z,2.80
2017-08-18T18:15:32.315Z,2.37
2017-08-18T18:17:59.844Z,2.30
2017-08-18T18:20:27.387Z,2.13
2017-08-18T18:22:55.915Z,2.37
2017-08-18T18:25:23.482Z,2.77
2017-08-18T18:27:50.980Z,1.83
2017-08-18T18:30:19.335Z,2.50
2017-08-18T18:32:46.906Z,1.80
2017-08-18T18:35:14.434Z,2.03
2017-08-18T18:37:41.972Z,1.80
2017-08-18T18:40:09.460Z,2.10
2017-08-18T18:42:37.001Z,2.30
2017-08-18T18:45:04.511Z,2.23
2017-08-18T18:47:32.123Z,1.90
2017-08-18T18:49:59.629Z,1.80
2017-08-18T18:52:27.224Z,1.97
2017-08-18T18:54:54.741Z,2.10
2017-08-18T18:57:22.420Z,1.83
2017-08-18T18:59:49.995Z,2.17
2017-08-18T19:02:18.278Z,2.50
2017-08-18T19:04:45.920Z,2.20
2017-08-18T19:09:47.457Z,2.03
2017-08-18T19:12:14.962Z,2.30
2017-08-18T19:14:43.259Z,2.10
2017-08-18T19:17:10.898Z,1.80
2017-08-18T19:19:38.439Z,1.87
2017-08-18T19:22:06.043Z,1.83
2017-08-18T19:24:33.616Z,2.20
2017-08-18T19:27:01.257Z,1.60
2017-08-18T19:29:29.594Z,1.77
2017-08-18T19:31:57.218Z,2.23
2017-08-18T19:34:24.764Z,2.07
2017-08-18T19:36:52.279Z,1.67
2017-08-18T19:39:20.313Z,1.73
2017-08-18T19:41:47.815Z,2.00
2017-08-18T19:44:15.502Z,1.80
2017-08-18T19:46:43.778Z,2.00
2017-08-18T19:49:12.062Z,1.90
2017-08-18T19:51:40.440Z,1.87
2017-08-18T19:54:07.960Z,1.83
2017-08-18T19:56:35.496Z,2.00
2017-08-18T19:59:02.978Z,1.90
2017-08-18T20:01:30.567Z,1.43
2017-08-18T20:03:58.043Z,1.97
2017-08-18T20:06:25.611Z,1.90
2017-08-18T20:08:53.230Z,2.00
2017-08-18T20:11:20.759Z,2.03
2017-08-18T20:13:48.354Z,1.63
2017-08-18T20:16:16.173Z,2.00
2017-08-18T20:18:43.748Z,1.57
2017-08-18T20:21:11.297Z,1.90
2017-08-18T20:23:38.917Z,1.90
2017-08-18T20:26:06.418Z,1.67
2017-08-18T20:28:33.952Z,1.80
2017-08-18T20:31:02.280Z,2.13
2017-08-18T20:33:29.821Z,2.07
2017-08-18T20:35:57.339Z,1.70
2017-08-18T20:38:24.854Z,1.90
2017-08-18T20:40:52.383Z,1.83
2017-08-18T20:43:19.949Z,1.70
2017-08-18T20:45:47.474Z,1.87
2017-08-18T20:48:15.760Z,1.90
2017-08-18T20:50:44.167Z,1.80
2017-08-18T20:53:11.717Z,1.50
2017-08-18T20:55:39.302Z,1.80
2017-08-18T20:58:07.056Z,2.10
2017-08-18T21:00:34.635Z,1.80
2017-08-18T21:03:02.188Z,1.87
2017-08-18T21:05:29.701Z,2.23
2017-08-18T21:07:57.928Z,1.43
2017-08-18T21:10:25.450Z,1.80
2017-08-18T21:12:52.986Z,1.87
2017-08-18T21:15:20.514Z,1.43
2017-08-18T21:17:48.041Z,1.60
2017-08-18T21:20:15.552Z,1.60
2017-08-18T21:22:43.098Z,1.37
2017-08-18T21:25:10.630Z,1.60
2017-08-18T21:27:38.145Z,1.80
2017-08-18T21:30:05.744Z,1.80
2017-08-18T21:32:33.269Z,1.80
2017-08-18T21:35:00.811Z,1.50
2017-08-18T21:37:28.306Z,1.63
2017-08-18T21:39:55.916Z,1.57
2017-08-18T21:42:23.410Z,1.50
2017-08-18T21:44:51.801Z,2.00
2017-08-18T21:47:20.078Z,1.70
2017-08-18T21:49:47.613Z,1.60
2017-08-18T21:52:15.113Z,1.67
2017-08-18T21:54:42.651Z,1.90
2017-08-18T21:57:10.961Z,2.10
2017-08-18T21:59:38.500Z,1.70
2017-08-18T22:02:06.775Z,1.57
2017-08-18T22:04:34.322Z,1.53
2017-08-18T22:07:01.858Z,1.80
2017-08-18T22:09:29.358Z,1.73
2017-08-18T22:11:56.906Z,1.57
2017-08-18T22:14:25.328Z,2.00
2017-08-18T22:16:52.836Z,1.57
2017-08-18T22:19:21.155Z,1.70
2017-08-18T22:21:48.650Z,1.93
2017-08-18T22:24:16.210Z,1.60
2017-08-18T22:26:43.721Z,1.70
2017-08-18T22:29:11.318Z,1.77
2017-08-18T22:31:38.966Z,1.60
2017-08-18T22:34:06.537Z,1.70
2017-08-18T22:36:34.999Z,1.77
2017-08-18T22:39:02.572Z,1.40
2017-08-18T22:41:30.838Z,1.70
2017-08-18T22:43:58.381Z,1.60
2017-08-18T22:46:25.909Z,1.80
2017-08-18T22:48:53.432Z,1.43
2017-08-18T22:51:20.950Z,1.53
2017-08-18T22:53:49.221Z,1.80
2017-08-18T22:56:17.502Z,1.60
2017-08-18T22:58:45.042Z,1.40
2017-08-18T23:01:12.543Z,1.43
2017-08-18T23:03:40.121Z,1.60
2017-08-18T23:06:07.645Z,1.53
2017-08-18T23:08:35.143Z,1.30
2017-08-18T23:11:02.650Z,1.57
2017-08-18T23:13:30.942Z,1.50
2017-08-18T23:15:59.262Z,1.47
2017-08-18T23:18:26.771Z,1.67
2017-08-18T23:20:55.046Z,1.47
2017-08-18T23:23:23.350Z,1.37
2017-08-18T23:25:50.882Z,1.60
2017-08-18T23:28:19.169Z,1.50
2017-08-18T23:30:47.440Z,1.33
2017-08-18T23:33:15.703Z,1.30
2017-08-18T23:35:44.015Z,1.30
2017-08-18T23:38:11.525Z,1.40
2017-08-18T23:40:39.083Z,1.40
2017-08-18T23:43:06.587Z,1.30
2017-08-18T23:45:34.888Z,1.77
2017-08-18T23:48:02.395Z,1.50
2017-08-18T23:50:30.035Z,1.33
2017-08-18T23:52:57.545Z,1.27
2017-08-18T23:55:25.037Z,1.60
2017-08-18T23:57:52.591Z,1.50
